createdAt,value
2019-03-19T00:00:17.910Z,1018.42
2019-03-19T00:01:17.896Z,1018.48
2019-03-19T00:02:17.890Z,1018.45
2019-03-19T00:03:17.871Z,1018.50
2019-03-19T00:04:17.862Z,1018.53
2019-03-19T00:05:17.851Z,1018.55
2019-03-19T00:06:17.835Z,1018.57
2019-03-19T00:07:17.828Z,1018.58
2019-03-19T00:08:17.816Z,1018.64
2019-03-19T00:09:17.803Z,1018.67
2019-03-19T00:10:17.789Z,1018.65
2019-03-19T00:11:17.782Z,1018.63
2019-03-19T00:12:17.764Z,1018.64
2019-03-19T00:13:17.756Z,1018.63
2019-03-19T00:14:17.748Z,1018.65
2019-03-19T00:15:17.730Z,1018.62
2019-03-19T00:16:17.728Z,1018.62
2019-03-19T00:17:17.711Z,1018.63
2019-03-19T00:18:17.701Z,1018.63
2019-03-19T00:19:17.691Z,1018.64
2019-03-19T00:20:17.682Z,1018.69
2019-03-19T00:21:17.666Z,1018.64
2019-03-19T00:22:17.654Z,1018.75
2019-03-19T00:23:17.652Z,1018.71
2019-03-19T00:24:17.638Z,1018.65
2019-03-19T00:25:17.619Z,1018.66
2019-03-19T00:26:17.615Z,1018.62
2019-03-19T00:27:17.596Z,1018.64
2019-03-19T00:28:17.589Z,1018.64
2019-03-19T00:29:17.569Z,1018.71
2019-03-19T00:30:17.567Z,1018.70
2019-03-19T00:31:17.562Z,1018.72
2019-03-19T00:32:17.538Z,1018.72
2019-03-19T00:33:17.536Z,1018.76
2019-03-19T00:34:17.527Z,1018.82
2019-03-19T00:35:17.503Z,1018.79
2019-03-19T00:36:17.703Z,1018.73
2019-03-19T00:37:17.481Z,1018.76
2019-03-19T00:38:17.469Z,1018.72
2019-03-19T00:39:17.458Z,1018.74
2019-03-19T00:40:17.445Z,1018.72
2019-03-19T00:41:17.475Z,1018.73
2019-03-19T00:42:17.422Z,1018.77
2019-03-19T00:43:17.411Z,1018.75
2019-03-19T00:44:17.400Z,1018.77
2019-03-19T00:45:17.395Z,1018.81
2019-03-19T00:46:17.380Z,1018.80
2019-03-19T00:47:17.365Z,1018.78
2019-03-19T00:48:17.361Z,1018.77
2019-03-19T00:49:17.346Z,1018.77
2019-03-19T00:50:17.330Z,1018.74
2019-03-19T00:51:17.316Z,1018.73
2019-03-19T00:52:17.304Z,1018.74
2019-03-19T00:53:17.297Z,1018.74
2019-03-19T00:54:17.288Z,1018.74
2019-03-19T00:55:17.273Z,1018.68
2019-03-19T00:56:17.263Z,1018.71
2019-03-19T00:57:17.246Z,1018.68
2019-03-19T00:58:17.239Z,1018.70
2019-03-19T00:59:17.223Z,1018.67
2019-03-19T01:00:17.215Z,1018.66
2019-03-19T01:01:17.200Z,1018.68
2019-03-19T01:02:17.192Z,1018.69
2019-03-19T01:03:17.179Z,1018.66
2019-03-19T01:04:17.169Z,1018.66
2019-03-19T01:05:17.157Z,1018.67
2019-03-19T01:06:17.143Z,1018.71
2019-03-19T01:07:17.133Z,1018.77
2019-03-19T01:08:17.122Z,1018.81
2019-03-19T01:09:17.113Z,1018.81
2019-03-19T01:10:17.801Z,1018.86
2019-03-19T01:11:17.133Z,1018.86
2019-03-19T01:12:17.077Z,1018.88
2019-03-19T01:13:17.075Z,1018.89
2019-03-19T01:14:17.055Z,1018.93
2019-03-19T01:15:17.048Z,1018.95
2019-03-19T01:16:17.035Z,1019.00
2019-03-19T01:17:17.029Z,1019.00
2019-03-19T01:18:17.010Z,1019.00
2019-03-19T01:19:16.999Z,1018.97
2019-03-19T01:20:16.988Z,1018.99
2019-03-19T01:21:16.973Z,1018.93
2019-03-19T01:22:16.959Z,1018.90
2019-03-19T01:23:16.952Z,1018.95
2019-03-19T01:24:16.942Z,1018.95
2019-03-19T01:25:16.928Z,1018.95
2019-03-19T01:26:16.919Z,1018.94
2019-03-19T01:27:16.894Z,1018.97
2019-03-19T01:28:16.890Z,1018.97
2019-03-19T01:29:16.880Z,1018.91
2019-03-19T01:30:16.867Z,1018.92
2019-03-19T01:31:16.861Z,1018.90
2019-03-19T01:32:16.843Z,1018.90
2019-03-19T01:33:16.839Z,1018.87
2019-03-19T01:34:16.818Z,1018.87
2019-03-19T01:35:16.807Z,1018.91
2019-03-19T01:36:16.794Z,1018.92
2019-03-19T01:37:16.783Z,1018.93
2019-03-19T01:38:16.775Z,1018.94
2019-03-19T01:39:16.762Z,1018.93
2019-03-19T01:40:16.748Z,1018.97
2019-03-19T01:41:16.741Z,1019.03
2019-03-19T01:42:16.723Z,1018.96
2019-03-19T01:43:16.715Z,1019.04
2019-03-19T01:44:16.701Z,1019.06
2019-03-19T01:45:16.688Z,1019.09
2019-03-19T01:46:16.672Z,1019.13
2019-03-19T01:47:16.679Z,1019.18
2019-03-19T01:48:16.658Z,1019.16
2019-03-19T01:49:16.645Z,1019.16
2019-03-19T01:50:16.632Z,1019.16
2019-03-19T01:51:16.618Z,1019.15
2019-03-19T01:52:16.603Z,1019.14
2019-03-19T01:53:16.593Z,1019.08
2019-03-19T01:54:16.584Z,1019.09
2019-03-19T01:55:16.576Z,1019.02
2019-03-19T01:56:16.560Z,1018.97
2019-03-19T01:57:16.550Z,1019.00
2019-03-19T01:58:16.536Z,1018.99
2019-03-19T01:59:16.522Z,1019.01
2019-03-19T02:00:16.513Z,1018.97
2019-03-19T02:01:16.509Z,1019.02
2019-03-19T02:02:16.489Z,1019.05
2019-03-19T02:03:16.473Z,1019.08
2019-03-19T02:04:16.464Z,1019.07
2019-03-19T02:05:16.467Z,1019.02
2019-03-19T02:06:16.438Z,1019.07
2019-03-19T02:07:16.430Z,1019.08
2019-03-19T02:08:16.426Z,1019.09
2019-03-19T02:09:16.406Z,1019.07
2019-03-19T02:10:16.395Z,1019.10
2019-03-19T02:11:16.391Z,1019.10
2019-03-19T02:12:16.368Z,1019.13
2019-03-19T02:13:16.357Z,1019.12
2019-03-19T02:14:16.342Z,1019.15
2019-03-19T02:15:16.347Z,1019.18
2019-03-19T02:16:16.324Z,1019.13
2019-03-19T02:17:16.312Z,1019.11
2019-03-19T02:18:16.294Z,1019.11
2019-03-19T02:19:16.287Z,1019.02
2019-03-19T02:20:16.276Z,1019.06
2019-03-19T02:21:16.264Z,1019.10
2019-03-19T02:22:16.251Z,1019.13
2019-03-19T02:23:16.241Z,1019.14
2019-03-19T02:24:16.234Z,1019.17
2019-03-19T02:25:16.216Z,1019.17
2019-03-19T02:26:17.047Z,1019.16
2019-03-19T02:27:16.191Z,1019.16
2019-03-19T02:28:16.180Z,1019.20
2019-03-19T02:29:16.171Z,1019.22
2019-03-19T02:30:16.198Z,1019.24
2019-03-19T02:31:16.147Z,1019.24
2019-03-19T02:32:16.130Z,1019.24
2019-03-19T02:33:16.123Z,1019.25
2019-03-19T02:34:16.111Z,1019.23
2019-03-19T02:35:16.093Z,1019.18
2019-03-19T02:36:16.083Z,1019.18
2019-03-19T02:37:16.073Z,1019.15
2019-03-19T02:38:16.056Z,1019.14
2019-03-19T02:39:16.051Z,1019.16
2019-03-19T02:40:16.041Z,1019.16
2019-03-19T02:41:16.022Z,1019.22
2019-03-19T02:42:16.023Z,1019.29
2019-03-19T02:43:15.996Z,1019.30
2019-03-19T02:44:15.984Z,1019.33
2019-03-19T02:45:15.978Z,1019.31
2019-03-19T02:46:15.960Z,1019.31
2019-03-19T02:47:15.967Z,1019.32
2019-03-19T02:48:15.959Z,1019.33
2019-03-19T02:49:15.926Z,1019.36
2019-03-19T02:50:15.910Z,1019.39
2019-03-19T02:51:15.904Z,1019.43
2019-03-19T02:52:15.924Z,1019.44
2019-03-19T02:53:15.879Z,1019.46
2019-03-19T02:54:15.865Z,1019.43
2019-03-19T02:55:15.860Z,1019.49
2019-03-19T02:56:31.368Z,1019.47
2019-03-19T02:57:15.865Z,1019.54
2019-03-19T02:58:15.815Z,1019.59
2019-03-19T02:59:15.805Z,1019.62
2019-03-19T03:00:15.792Z,1019.66
2019-03-19T03:01:15.779Z,1019.64
2019-03-19T03:02:15.796Z,1019.62
2019-03-19T03:03:15.751Z,1019.62
2019-03-19T03:04:15.746Z,1019.63
2019-03-19T03:05:15.734Z,1019.59
2019-03-19T03:06:15.724Z,1019.62
2019-03-19T03:07:15.700Z,1019.60
2019-03-19T03:08:15.696Z,1019.59
2019-03-19T03:09:15.682Z,1019.60
2019-03-19T03:10:15.686Z,1019.58
2019-03-19T03:11:15.668Z,1019.59
2019-03-19T03:12:15.648Z,1019.62
2019-03-19T03:13:15.644Z,1019.61
2019-03-19T03:14:15.625Z,1019.60
2019-03-19T03:15:15.631Z,1019.63
2019-03-19T03:16:15.606Z,1019.66
2019-03-19T03:17:15.585Z,1019.69
2019-03-19T03:18:15.578Z,1019.71
2019-03-19T03:19:15.560Z,1019.72
2019-03-19T03:20:15.559Z,1019.76
2019-03-19T03:21:15.537Z,1019.72
2019-03-19T03:22:15.527Z,1019.76
2019-03-19T03:23:15.515Z,1019.81
2019-03-19T03:24:15.503Z,1019.82
2019-03-19T03:25:15.506Z,1019.88
2019-03-19T03:26:15.480Z,1019.89
2019-03-19T03:27:15.467Z,1019.88
2019-03-19T03:28:15.460Z,1019.91
2019-03-19T03:29:15.444Z,1019.97
2019-03-19T03:30:15.480Z,1020.00
2019-03-19T03:31:15.432Z,1019.93
2019-03-19T03:32:15.409Z,1019.99
2019-03-19T03:33:15.397Z,1019.97
2019-03-19T03:34:15.383Z,1019.99
2019-03-19T03:35:15.406Z,1019.94
2019-03-19T03:36:15.357Z,1019.99
2019-03-19T03:37:15.347Z,1020.04
2019-03-19T03:38:15.337Z,1019.97
2019-03-19T03:39:15.322Z,1019.93
2019-03-19T03:40:15.320Z,1019.94
2019-03-19T03:41:15.291Z,1019.97
2019-03-19T03:42:15.285Z,1019.95
2019-03-19T03:43:15.273Z,1020.00
2019-03-19T03:44:15.264Z,1020.03
2019-03-19T03:45:15.256Z,1020.07
2019-03-19T03:46:15.238Z,1020.07
2019-03-19T03:47:15.231Z,1020.10
2019-03-19T03:48:15.214Z,1020.10
2019-03-19T03:49:15.202Z,1020.10
2019-03-19T03:50:15.189Z,1020.16
2019-03-19T03:51:15.179Z,1020.19
2019-03-19T03:52:15.175Z,1020.20
2019-03-19T03:53:15.153Z,1020.15
2019-03-19T03:54:15.142Z,1020.14
2019-03-19T03:55:15.132Z,1020.16
2019-03-19T03:56:15.133Z,1020.17
2019-03-19T03:57:15.125Z,1020.16
2019-03-19T03:58:15.096Z,1020.18
2019-03-19T03:59:15.080Z,1020.17
2019-03-19T04:00:15.073Z,1020.12
2019-03-19T04:01:15.056Z,1020.17
2019-03-19T04:02:15.045Z,1020.16
2019-03-19T04:03:15.034Z,1020.16
2019-03-19T04:04:15.023Z,1020.13
2019-03-19T04:05:15.019Z,1020.20
2019-03-19T04:06:14.998Z,1020.22
2019-03-19T04:07:14.987Z,1020.23
2019-03-19T04:08:14.972Z,1020.23
2019-03-19T04:09:14.963Z,1020.28
2019-03-19T04:10:14.951Z,1020.27
2019-03-19T04:11:14.935Z,1020.28
2019-03-19T04:12:14.927Z,1020.25
2019-03-19T04:13:14.926Z,1020.24
2019-03-19T04:14:14.898Z,1020.24
2019-03-19T04:15:14.890Z,1020.24
2019-03-19T04:16:14.876Z,1020.24
2019-03-19T04:17:14.867Z,1020.28
2019-03-19T04:18:14.857Z,1020.27
2019-03-19T04:19:14.867Z,1020.33
2019-03-19T04:20:14.830Z,1020.26
2019-03-19T04:21:14.815Z,1020.23
2019-03-19T04:22:16.057Z,1020.24
2019-03-19T04:23:14.799Z,1020.25
2019-03-19T04:24:14.777Z,1020.20
2019-03-19T04:25:14.762Z,1020.26
2019-03-19T04:26:14.759Z,1020.30
2019-03-19T04:27:16.416Z,1020.37
2019-03-19T04:28:14.752Z,1020.41
2019-03-19T04:29:14.721Z,1020.40
2019-03-19T04:30:14.710Z,1020.37
2019-03-19T04:31:14.700Z,1020.46
2019-03-19T04:32:14.684Z,1020.41
2019-03-19T04:33:14.668Z,1020.40
2019-03-19T04:34:14.651Z,1020.38
2019-03-19T04:35:14.659Z,1020.45
2019-03-19T04:36:14.632Z,1020.46
2019-03-19T04:37:14.618Z,1020.45
2019-03-19T04:38:14.609Z,1020.46
2019-03-19T04:39:14.593Z,1020.45
2019-03-19T04:40:14.583Z,1020.47
2019-03-19T04:41:14.586Z,1020.43
2019-03-19T04:42:14.564Z,1020.45
2019-03-19T04:43:14.560Z,1020.43
2019-03-19T04:44:14.546Z,1020.44
2019-03-19T04:45:14.523Z,1020.44
2019-03-19T04:46:14.523Z,1020.41
2019-03-19T04:47:14.498Z,1020.38
2019-03-19T04:48:14.490Z,1020.38
2019-03-19T04:49:14.488Z,1020.40
2019-03-19T04:50:14.468Z,1020.38
2019-03-19T04:51:14.449Z,1020.38
2019-03-19T04:52:14.438Z,1020.38
2019-03-19T04:53:14.432Z,1020.40
2019-03-19T04:54:14.431Z,1020.46
2019-03-19T04:55:14.401Z,1020.42
2019-03-19T04:56:14.396Z,1020.37
2019-03-19T04:57:14.376Z,1020.37
2019-03-19T04:58:14.362Z,1020.37
2019-03-19T04:59:14.362Z,1020.35
2019-03-19T05:00:14.335Z,1020.34
2019-03-19T05:01:14.328Z,1020.33
2019-03-19T05:02:14.336Z,1020.31
2019-03-19T05:03:14.304Z,1020.33
2019-03-19T05:04:14.299Z,1020.36
2019-03-19T05:05:14.276Z,1020.40
2019-03-19T05:06:14.259Z,1020.39
2019-03-19T05:07:14.254Z,1020.43
2019-03-19T05:08:14.242Z,1020.41
2019-03-19T05:09:14.229Z,1020.42
2019-03-19T05:10:14.228Z,1020.45
2019-03-19T05:11:14.203Z,1020.46
2019-03-19T05:12:14.189Z,1020.49
2019-03-19T05:13:14.184Z,1020.51
2019-03-19T05:14:14.172Z,1020.54
2019-03-19T05:15:14.158Z,1020.54
2019-03-19T05:16:14.156Z,1020.57
2019-03-19T05:17:14.133Z,1020.56
2019-03-19T05:18:14.127Z,1020.60
2019-03-19T05:19:14.101Z,1020.60
2019-03-19T05:20:14.110Z,1020.60
2019-03-19T05:21:14.090Z,1020.63
2019-03-19T05:22:14.066Z,1020.64
2019-03-19T05:23:14.050Z,1020.60
2019-03-19T05:24:14.035Z,1020.63
2019-03-19T05:25:14.062Z,1020.60
2019-03-19T05:26:14.019Z,1020.60
2019-03-19T05:27:14.136Z,1020.56
2019-03-19T05:28:13.997Z,1020.56
2019-03-19T05:29:13.991Z,1020.62
2019-03-19T05:30:13.964Z,1020.59
2019-03-19T05:31:13.959Z,1020.62
2019-03-19T05:32:13.955Z,1020.64
2019-03-19T05:33:13.946Z,1020.67
2019-03-19T05:34:13.925Z,1020.69
2019-03-19T05:35:13.909Z,1020.71
2019-03-19T05:36:13.910Z,1020.68
2019-03-19T05:37:13.896Z,1020.74
2019-03-19T05:38:13.872Z,1020.73
2019-03-19T05:39:13.862Z,1020.77
2019-03-19T05:40:13.850Z,1020.81
2019-03-19T05:41:13.837Z,1020.79
2019-03-19T05:42:13.824Z,1020.79
2019-03-19T05:43:13.807Z,1020.77
2019-03-19T05:44:13.795Z,1020.76
2019-03-19T05:45:13.794Z,1020.81
2019-03-19T05:46:13.782Z,1020.81
2019-03-19T05:47:13.762Z,1020.81
2019-03-19T05:48:13.748Z,1020.78
2019-03-19T05:49:13.737Z,1020.81
2019-03-19T05:50:13.732Z,1020.79
2019-03-19T05:51:15.696Z,1020.79
2019-03-19T05:52:13.700Z,1020.80
2019-03-19T05:53:13.691Z,1020.79
2019-03-19T05:54:13.673Z,1020.81
2019-03-19T05:55:13.677Z,1020.83
2019-03-19T05:56:13.658Z,1020.85
2019-03-19T05:57:13.637Z,1020.87
2019-03-19T05:58:13.625Z,1020.86
2019-03-19T05:59:13.612Z,1020.90
2019-03-19T06:00:13.607Z,1020.90
2019-03-19T06:01:13.586Z,1020.94
2019-03-19T06:02:13.573Z,1020.98
2019-03-19T06:03:13.569Z,1021.03
2019-03-19T06:04:13.553Z,1021.05
2019-03-19T06:05:13.540Z,1021.13
2019-03-19T06:06:13.538Z,1021.12
2019-03-19T06:07:13.512Z,1021.10
2019-03-19T06:08:13.510Z,1021.15
2019-03-19T06:09:13.489Z,1021.11
2019-03-19T06:10:13.477Z,1021.12
2019-03-19T06:11:13.468Z,1021.12
2019-03-19T06:12:13.459Z,1021.10
2019-03-19T06:13:13.442Z,1021.09
2019-03-19T06:14:13.429Z,1021.11
2019-03-19T06:15:13.420Z,1021.12
2019-03-19T06:16:13.412Z,1021.12
2019-03-19T06:17:13.397Z,1021.07
2019-03-19T06:18:13.381Z,1021.10
2019-03-19T06:19:13.367Z,1021.07
2019-03-19T06:20:13.361Z,1021.10
2019-03-19T06:21:13.341Z,1021.08
2019-03-19T06:22:13.334Z,1021.11
2019-03-19T06:23:13.322Z,1021.07
2019-03-19T06:24:13.310Z,1021.04
2019-03-19T06:25:13.307Z,1021.05
2019-03-19T06:26:13.288Z,1021.03
2019-03-19T06:27:13.278Z,1021.05
2019-03-19T06:28:13.257Z,1021.05
2019-03-19T06:29:13.247Z,1021.06
2019-03-19T06:30:13.246Z,1021.08
2019-03-19T06:31:13.226Z,1021.12
2019-03-19T06:32:13.217Z,1021.08
2019-03-19T06:33:13.204Z,1021.20
2019-03-19T06:34:13.181Z,1021.21
2019-03-19T06:35:13.185Z,1021.23
2019-03-19T06:36:13.162Z,1021.30
2019-03-19T06:37:13.161Z,1021.30
2019-03-19T06:38:13.138Z,1021.32
2019-03-19T06:39:13.126Z,1021.31
2019-03-19T06:40:13.111Z,1021.39
2019-03-19T06:41:13.100Z,1021.41
2019-03-19T06:42:13.095Z,1021.45
2019-03-19T06:43:13.082Z,1021.46
2019-03-19T06:44:13.072Z,1021.48
2019-03-19T06:45:13.057Z,1021.48
2019-03-19T06:46:13.051Z,1021.53
2019-03-19T06:47:13.049Z,1021.50
2019-03-19T06:48:13.019Z,1021.53
2019-03-19T06:49:13.022Z,1021.53
2019-03-19T06:50:13.001Z,1021.51
2019-03-19T06:51:12.986Z,1021.49
2019-03-19T06:52:12.970Z,1021.50
2019-03-19T06:53:12.967Z,1021.50
2019-03-19T06:54:12.949Z,1021.55
2019-03-19T06:55:12.963Z,1021.55
2019-03-19T06:56:14.793Z,1021.53
2019-03-19T06:57:12.916Z,1021.57
2019-03-19T06:58:12.902Z,1021.51
2019-03-19T06:59:12.890Z,1021.57
2019-03-19T07:00:12.885Z,1021.60
2019-03-19T07:01:12.868Z,1021.60
2019-03-19T07:02:12.857Z,1021.63
2019-03-19T07:03:12.867Z,1021.66
2019-03-19T07:04:12.845Z,1021.68
2019-03-19T07:05:12.833Z,1021.70
2019-03-19T07:06:12.814Z,1021.75
2019-03-19T07:07:12.803Z,1021.77
2019-03-19T07:08:12.807Z,1021.81
2019-03-19T07:09:12.783Z,1021.83
2019-03-19T07:10:12.769Z,1021.88
2019-03-19T07:11:12.769Z,1021.90
2019-03-19T07:12:12.754Z,1021.94
2019-03-19T07:13:12.740Z,1021.92
2019-03-19T07:14:12.727Z,1021.94
2019-03-19T07:15:12.719Z,1021.93
2019-03-19T07:16:12.708Z,1021.94
2019-03-19T07:17:12.701Z,1021.95
2019-03-19T07:18:12.686Z,1021.95
2019-03-19T07:19:12.678Z,1021.95
2019-03-19T07:20:12.666Z,1021.94
2019-03-19T07:21:12.662Z,1021.96
2019-03-19T07:22:12.650Z,1021.94
2019-03-19T07:23:12.655Z,1021.96
2019-03-19T07:24:12.631Z,1021.93
2019-03-19T07:25:12.619Z,1022.00
2019-03-19T07:26:12.612Z,1021.99
2019-03-19T07:27:12.607Z,1022.02
2019-03-19T07:28:21.610Z,1022.03
2019-03-19T07:29:12.582Z,1022.06
2019-03-19T07:30:12.574Z,1022.07
2019-03-19T07:31:12.563Z,1022.06
2019-03-19T07:32:12.553Z,1022.07
2019-03-19T07:33:12.540Z,1022.08
2019-03-19T07:34:12.533Z,1022.12
2019-03-19T07:35:12.527Z,1022.12
2019-03-19T07:36:12.538Z,1022.15
2019-03-19T07:37:12.510Z,1022.12
2019-03-19T07:38:12.496Z,1022.12
2019-03-19T07:39:12.498Z,1022.08
2019-03-19T07:40:12.482Z,1022.07
2019-03-19T07:41:12.475Z,1022.06
2019-03-19T07:42:12.469Z,1022.04
2019-03-19T07:43:12.455Z,1021.99
2019-03-19T07:44:12.435Z,1021.99
2019-03-19T07:45:12.507Z,1022.00
2019-03-19T07:46:12.423Z,1022.00
2019-03-19T07:47:12.420Z,1021.99
2019-03-19T07:48:12.411Z,1021.94
2019-03-19T07:49:12.400Z,1022.00
2019-03-19T07:50:12.396Z,1021.99
2019-03-19T07:51:12.378Z,1022.09
2019-03-19T07:52:12.375Z,1022.09
2019-03-19T07:53:12.366Z,1022.12
2019-03-19T07:54:12.355Z,1022.16
2019-03-19T07:55:12.389Z,1022.23
2019-03-19T07:56:12.341Z,1022.21
2019-03-19T07:57:12.334Z,1022.20
2019-03-19T07:58:12.318Z,1022.23
2019-03-19T07:59:12.315Z,1022.24
2019-03-19T08:00:12.310Z,1022.22
2019-03-19T08:01:12.287Z,1022.22
2019-03-19T08:02:12.285Z,1022.25
2019-03-19T08:03:16.373Z,1022.22
2019-03-19T08:04:12.266Z,1022.23
2019-03-19T08:05:12.261Z,1022.19
2019-03-19T08:06:12.254Z,1022.22
2019-03-19T08:07:12.242Z,1022.22
2019-03-19T08:08:12.243Z,1022.28
2019-03-19T08:09:12.225Z,1022.29
2019-03-19T08:10:12.251Z,1022.29
2019-03-19T08:11:13.136Z,1022.31
2019-03-19T08:12:12.209Z,1022.31
2019-03-19T08:13:12.196Z,1022.33
2019-03-19T08:14:12.185Z,1022.35
2019-03-19T08:15:12.178Z,1022.33
2019-03-19T08:16:12.168Z,1022.33
2019-03-19T08:17:12.165Z,1022.34
2019-03-19T08:18:12.153Z,1022.33
2019-03-19T08:19:12.146Z,1022.33
2019-03-19T08:20:12.137Z,1022.33
2019-03-19T08:21:12.149Z,1022.33
2019-03-19T08:22:12.122Z,1022.31
2019-03-19T08:23:12.120Z,1022.30
2019-03-19T08:24:12.107Z,1022.31
2019-03-19T08:25:12.107Z,1022.35
2019-03-19T08:26:12.091Z,1022.31
2019-03-19T08:27:12.081Z,1022.32
2019-03-19T08:28:12.127Z,1022.30
2019-03-19T08:29:12.061Z,1022.30
2019-03-19T08:30:12.060Z,1022.27
2019-03-19T08:31:12.048Z,1022.24
2019-03-19T08:32:12.041Z,1022.24
2019-03-19T08:33:12.035Z,1022.19
2019-03-19T08:34:12.026Z,1022.18
2019-03-19T08:35:12.017Z,1022.18
2019-03-19T08:36:12.011Z,1022.19
2019-03-19T08:37:12.004Z,1022.19
2019-03-19T08:38:11.991Z,1022.19
2019-03-19T08:39:11.985Z,1022.21
2019-03-19T08:40:11.978Z,1022.23
2019-03-19T08:41:11.966Z,1022.21
2019-03-19T08:42:11.967Z,1022.23
2019-03-19T08:43:11.953Z,1022.23
2019-03-19T08:44:11.946Z,1022.22
2019-03-19T08:45:11.937Z,1022.21
2019-03-19T08:46:11.931Z,1022.23
2019-03-19T08:47:11.919Z,1022.20
2019-03-19T08:48:11.910Z,1022.27
2019-03-19T08:49:11.903Z,1022.29
2019-03-19T08:50:11.893Z,1022.29
2019-03-19T08:51:11.887Z,1022.28
2019-03-19T08:52:11.885Z,1022.33
2019-03-19T08:53:11.881Z,1022.31
2019-03-19T08:54:11.864Z,1022.30
2019-03-19T08:55:11.859Z,1022.38
2019-03-19T08:56:11.845Z,1022.35
2019-03-19T08:57:11.835Z,1022.34
2019-03-19T08:58:11.841Z,1022.37
2019-03-19T08:59:11.829Z,1022.35
2019-03-19T09:00:11.813Z,1022.33
2019-03-19T09:01:11.803Z,1022.35
2019-03-19T09:02:11.793Z,1022.40
2019-03-19T09:03:11.802Z,1022.35
2019-03-19T09:04:11.792Z,1022.35
2019-03-19T09:05:11.776Z,1022.35
2019-03-19T09:06:11.774Z,1022.33
2019-03-19T09:07:11.756Z,1022.34
2019-03-19T09:08:11.746Z,1022.32
2019-03-19T09:09:11.741Z,1022.34
2019-03-19T09:10:11.736Z,1022.35
2019-03-19T09:11:11.733Z,1022.36
2019-03-19T09:12:11.734Z,1022.32
2019-03-19T09:13:11.705Z,1022.34
2019-03-19T09:14:11.709Z,1022.33
2019-03-19T09:15:11.697Z,1022.43
2019-03-19T09:16:11.681Z,1022.39
2019-03-19T09:17:11.678Z,1022.39
2019-03-19T09:18:11.658Z,1022.38
2019-03-19T09:19:11.654Z,1022.37
2019-03-19T09:20:11.645Z,1022.39
2019-03-19T09:21:11.642Z,1022.41
2019-03-19T09:22:11.637Z,1022.42
2019-03-19T09:23:11.626Z,1022.41
2019-03-19T09:24:11.619Z,1022.40
2019-03-19T09:25:11.619Z,1022.43
2019-03-19T09:26:11.598Z,1022.42
2019-03-19T09:27:11.584Z,1022.41
2019-03-19T09:28:11.587Z,1022.47
2019-03-19T09:29:16.758Z,1022.48
2019-03-19T09:30:11.563Z,1022.52
2019-03-19T09:31:11.555Z,1022.61
2019-03-19T09:32:11.543Z,1022.63
2019-03-19T09:33:11.535Z,1022.63
2019-03-19T09:34:11.536Z,1022.63
2019-03-19T09:35:11.526Z,1022.68
2019-03-19T09:36:11.515Z,1022.68
2019-03-19T09:37:11.511Z,1022.64
2019-03-19T09:38:11.496Z,1022.73
2019-03-19T09:39:11.488Z,1022.68
2019-03-19T09:40:11.473Z,1022.69
2019-03-19T09:41:11.470Z,1022.68
2019-03-19T09:42:11.482Z,1022.70
2019-03-19T09:43:11.454Z,1022.66
2019-03-19T09:44:11.450Z,1022.68
2019-03-19T09:45:11.432Z,1022.72
2019-03-19T09:46:11.429Z,1022.72
2019-03-19T09:47:11.428Z,1022.69
2019-03-19T09:48:11.411Z,1022.68
2019-03-19T09:49:11.407Z,1022.69
2019-03-19T09:50:11.403Z,1022.74
2019-03-19T09:51:11.385Z,1022.73
2019-03-19T09:52:11.380Z,1022.76
2019-03-19T09:53:11.373Z,1022.76
2019-03-19T09:54:11.368Z,1022.72
2019-03-19T09:55:11.362Z,1022.71
2019-03-19T09:56:11.355Z,1022.71
2019-03-19T09:57:13.587Z,1022.68
2019-03-19T09:58:11.336Z,1022.74
2019-03-19T09:59:11.327Z,1022.75
2019-03-19T10:00:11.316Z,1022.74
2019-03-19T10:01:11.323Z,1022.75
2019-03-19T10:02:11.310Z,1022.74
2019-03-19T10:03:11.294Z,1022.76
2019-03-19T10:04:11.293Z,1022.77
2019-03-19T10:05:11.286Z,1022.78
2019-03-19T10:06:14.258Z,1022.76
2019-03-19T10:07:11.275Z,1022.80
2019-03-19T10:08:11.267Z,1022.81
2019-03-19T10:09:11.262Z,1022.84
2019-03-19T10:10:11.255Z,1022.80
2019-03-19T10:11:11.280Z,1022.84
2019-03-19T10:12:11.239Z,1022.84
2019-03-19T10:13:11.244Z,1022.83
2019-03-19T10:14:11.222Z,1022.84
2019-03-19T10:15:11.221Z,1022.83
2019-03-19T10:16:11.222Z,1022.89
2019-03-19T10:17:11.203Z,1022.84
2019-03-19T10:18:11.192Z,1022.85
2019-03-19T10:19:11.183Z,1022.87
2019-03-19T10:20:11.186Z,1022.87
2019-03-19T10:21:11.181Z,1022.89
2019-03-19T10:22:11.189Z,1022.91
2019-03-19T10:23:11.164Z,1022.91
2019-03-19T10:24:11.151Z,1022.92
2019-03-19T10:25:11.155Z,1022.90
2019-03-19T10:26:11.141Z,1022.93
2019-03-19T10:27:11.139Z,1022.94
2019-03-19T10:28:11.131Z,1022.93
2019-03-19T10:29:11.121Z,1022.95
2019-03-19T10:30:11.110Z,1022.94
2019-03-19T10:31:11.100Z,1022.98
2019-03-19T10:32:11.107Z,1022.98
2019-03-19T10:33:11.094Z,1023.01
2019-03-19T10:34:11.080Z,1023.03
2019-03-19T10:35:12.790Z,1022.98
2019-03-19T10:36:11.058Z,1023.02
2019-03-19T10:37:11.066Z,1023.07
2019-03-19T10:38:12.786Z,1023.04
2019-03-19T10:39:11.039Z,1022.98
2019-03-19T10:40:11.037Z,1022.97
2019-03-19T10:41:12.794Z,1022.97
2019-03-19T10:42:11.014Z,1022.95
2019-03-19T10:43:14.791Z,1022.90
2019-03-19T10:44:12.801Z,1022.92
2019-03-19T10:45:11.002Z,1022.94
2019-03-19T10:46:10.980Z,1022.99
2019-03-19T10:47:10.980Z,1022.96
2019-03-19T10:48:14.809Z,1022.92
2019-03-19T10:49:10.957Z,1022.91
2019-03-19T10:50:10.969Z,1022.86
2019-03-19T10:51:10.956Z,1022.86
2019-03-19T10:52:10.938Z,1022.84
2019-03-19T10:53:12.798Z,1022.86
2019-03-19T10:54:10.922Z,1022.86
2019-03-19T10:55:10.922Z,1022.86
2019-03-19T10:56:10.900Z,1022.88
2019-03-19T10:57:10.964Z,1022.89
2019-03-19T10:58:11.554Z,1022.93
2019-03-19T10:59:10.881Z,1022.91
2019-03-19T11:00:12.801Z,1022.90
2019-03-19T11:01:11.864Z,1022.93
2019-03-19T11:02:10.876Z,1022.93
2019-03-19T11:03:10.876Z,1022.91
2019-03-19T11:04:10.843Z,1022.91
2019-03-19T11:05:10.840Z,1022.92
2019-03-19T11:06:10.861Z,1022.90
2019-03-19T11:07:11.815Z,1022.92
2019-03-19T11:08:10.817Z,1022.93
2019-03-19T11:09:10.811Z,1022.97
2019-03-19T11:10:10.800Z,1022.97
2019-03-19T11:11:12.356Z,1023.03
2019-03-19T11:12:10.790Z,1023.05
2019-03-19T11:13:10.783Z,1023.05
2019-03-19T11:14:10.772Z,1023.03
2019-03-19T11:15:10.768Z,1023.05
2019-03-19T11:16:10.755Z,1023.09
2019-03-19T11:17:10.754Z,1023.07
2019-03-19T11:18:10.738Z,1023.05
2019-03-19T11:19:10.732Z,1023.05
2019-03-19T11:20:10.726Z,1023.04
2019-03-19T11:21:10.717Z,1023.04
2019-03-19T11:22:10.710Z,1023.04
2019-03-19T11:23:10.702Z,1023.04
2019-03-19T11:24:10.698Z,1023.06
2019-03-19T11:25:10.691Z,1023.07
2019-03-19T11:26:10.687Z,1023.07
2019-03-19T11:27:10.670Z,1023.08
2019-03-19T11:28:10.662Z,1023.06
2019-03-19T11:29:10.667Z,1023.09
2019-03-19T11:30:10.647Z,1023.03
2019-03-19T11:31:10.650Z,1023.06
2019-03-19T11:32:10.647Z,1023.07
2019-03-19T11:33:10.630Z,1023.06
2019-03-19T11:34:10.621Z,1023.05
2019-03-19T11:35:10.620Z,1023.06
2019-03-19T11:36:10.614Z,1023.03
2019-03-19T11:37:10.608Z,1023.08
2019-03-19T11:38:10.596Z,1023.04
2019-03-19T11:39:10.584Z,1023.02
2019-03-19T11:40:10.921Z,1023.01
2019-03-19T11:41:10.575Z,1022.99
2019-03-19T11:42:10.558Z,1022.97
2019-03-19T11:43:10.559Z,1022.95
2019-03-19T11:44:10.550Z,1022.94
2019-03-19T11:45:10.541Z,1022.94
2019-03-19T11:46:10.533Z,1022.94
2019-03-19T11:47:10.521Z,1022.97
2019-03-19T11:48:10.519Z,1022.89
2019-03-19T11:49:10.531Z,1022.98
2019-03-19T11:50:10.501Z,1022.96
2019-03-19T11:51:10.497Z,1022.90
2019-03-19T11:52:10.488Z,1022.86
2019-03-19T11:53:10.479Z,1022.87
2019-03-19T11:54:10.472Z,1022.88
2019-03-19T11:55:10.481Z,1022.91
2019-03-19T11:56:10.459Z,1022.88
2019-03-19T11:57:10.452Z,1022.85
2019-03-19T11:58:10.454Z,1022.85
2019-03-19T11:59:10.432Z,1022.83
2019-03-19T12:00:11.680Z,1022.83
2019-03-19T12:01:10.426Z,1022.82
2019-03-19T12:02:10.414Z,1022.85
2019-03-19T12:03:15.171Z,1022.85
2019-03-19T12:04:10.396Z,1022.91
2019-03-19T12:05:10.406Z,1022.86